Time;durP1;ratioP1;P1;durP2;ratioP2;P2;SDS_P1;SDS_P2;PMS_P1;PMS_P2;Temp;Humidity;BMP_temperature;BMP_pressure;BME280_temperature;BME280_humidity;BME280_pressure;Samples;Min_cycle;Max_cycle;Signal;HPM_P1;HPM_P2
2022/04/16 00:00:20;;;;;;;14.10;8.10;;;;;;;;;;4976170;28;20674;-35
2022/04/16 00:02:46;;;;;;;11.80;7.90;;;;;;;;;;4972575;28;20490;-35
2022/04/16 00:05:13;;;;;;;12.47;8.50;;;;;;;;;;4973237;28;20602;-35
2022/04/16 00:07:39;;;;;;;12.70;8.87;;;;;;;;;;4977424;28;20197;-35
2022/04/16 00:10:06;;;;;;;12.43;8.97;;;;;;;;;;4975322;28;20842;-35
2022/04/16 00:12:32;;;;;;;13.33;9.30;;;;;;;;;;4974593;28;20404;-35
2022/04/16 00:14:59;;;;;;;14.27;8.13;;;;;;;;;;4975628;28;20165;-35
2022/04/16 00:17:25;;;;;;;15.17;9.13;;;;;;;;;;4973588;28;21477;-35
2022/04/16 00:19:51;;;;;;;11.77;9.13;;;;;;;;;;4971403;28;22275;-35
2022/04/16 00:22:18;;;;;;;10.83;8.70;;;;;;;;;;4976845;28;20585;-35
2022/04/16 00:24:44;;;;;;;14.63;10.00;;;;;;;;;;4977263;28;20521;-35
2022/04/16 00:27:11;;;;;;;11.40;10.17;;;;;;;;;;4974402;28;20986;-35
2022/04/16 00:29:37;;;;;;;13.00;10.10;;;;;;;;;;4968058;28;20178;-35
2022/04/16 00:32:06;;;;;;;14.47;10.80;;;;;;;;;;4981773;28;20176;-35
2022/04/16 00:34:33;;;;;;;16.43;10.90;;;;;;;;;;4971854;28;20195;-35
2022/04/16 00:36:59;;;;;;;13.47;10.43;;;;;;;;;;4975186;28;20728;-35
2022/04/16 00:39:25;;;;;;;12.47;8.73;;;;;;;;;;4971771;28;20169;-35
2022/04/16 00:41:52;;;;;;;11.43;8.30;;;;;;;;;;4977925;28;20181;-35
2022/04/16 00:44:23;;;;;;;11.10;8.37;;;;;;;;;;4975858;28;20174;-35
2022/04/16 00:46:50;;;;;;;13.83;8.07;;;;;;;;;;4974842;28;21472;-35
2022/04/16 00:49:16;;;;;;;11.70;8.00;;;;;;;;;;4976661;28;20176;-35
2022/04/16 00:51:45;;;;;;;12.30;8.33;;;;;;;;;;4984318;28;20475;-35
2022/04/16 00:54:11;;;;;;;11.03;8.27;;;;;;;;;;4974994;28;20161;-35
2022/04/16 00:56:38;;;;;;;15.73;9.23;;;;;;;;;;4976352;28;20597;-35
2022/04/16 00:59:04;;;;;;;13.37;8.83;;;;;;;;;;4979963;28;21024;-35
2022/04/16 01:01:31;;;;;;;16.03;10.07;;;;;;;;;;4977857;28;20258;-35
2022/04/16 01:03:57;;;;;;;15.03;10.43;;;;;;;;;;4977288;28;20255;-35
2022/04/16 01:06:23;;;;;;;18.53;11.13;;;;;;;;;;4978081;28;20205;-35
2022/04/16 01:08:50;;;;;;;23.20;11.77;;;;;;;;;;4978939;28;20642;-35
2022/04/16 01:11:16;;;;;;;14.63;11.43;;;;;;;;;;4976922;28;20615;-35
2022/04/16 01:13:45;;;;;;;15.33;10.93;;;;;;;;;;4976523;28;20486;-35
2022/04/16 01:16:12;;;;;;;15.10;10.73;;;;;;;;;;4977492;28;20354;-35
2022/04/16 01:18:45;;;;;;;15.87;11.40;;;;;;;;;;4976035;28;20178;-35
2022/04/16 01:21:11;;;;;;;18.77;12.53;;;;;;;;;;4977053;28;21986;-35
2022/04/16 01:23:37;;;;;;;18.37;12.10;;;;;;;;;;4978179;28;20691;-35
2022/04/16 01:26:04;;;;;;;15.57;11.60;;;;;;;;;;4981322;28;20185;-35
2022/04/16 01:28:30;;;;;;;18.97;13.33;;;;;;;;;;4976642;28;20177;-35
2022/04/16 01:30:56;;;;;;;20.27;13.30;;;;;;;;;;4974826;28;20192;-35
2022/04/16 01:33:22;;;;;;;18.30;14.40;;;;;;;;;;4976871;28;20174;-35
2022/04/16 01:35:53;;;;;;;20.27;12.77;;;;;;;;;;4989533;28;20176;-35
2022/04/16 01:38:19;;;;;;;19.73;13.90;;;;;;;;;;4978275;28;20490;-35
2022/04/16 01:40:45;;;;;;;23.03;14.73;;;;;;;;;;4976283;28;20201;-35
2022/04/16 01:43:12;;;;;;;20.20;14.73;;;;;;;;;;4975209;28;20180;-35
2022/04/16 01:45:38;;;;;;;21.53;14.10;;;;;;;;;;4978520;28;20185;-35
2022/04/16 01:48:04;;;;;;;18.93;13.80;;;;;;;;;;4978488;28;20674;-35
2022/04/16 01:50:30;;;;;;;19.20;14.57;;;;;;;;;;4979113;28;20506;-35
2022/04/16 01:52:56;;;;;;;19.43;14.47;;;;;;;;;;4977361;28;20589;-35
2022/04/16 01:55:23;;;;;;;21.27;14.13;;;;;;;;;;4974771;28;20165;-35
2022/04/16 01:57:49;;;;;;;20.90;15.70;;;;;;;;;;4979806;28;20229;-36
2022/04/16 02:00:15;;;;;;;20.40;16.37;;;;;;;;;;4978633;28;20184;-35
2022/04/16 02:02:42;;;;;;;24.80;17.53;;;;;;;;;;4978478;28;20180;-35
2022/04/16 02:05:09;;;;;;;27.13;16.87;;;;;;;;;;4980106;28;20189;-35
2022/04/16 02:07:35;;;;;;;21.80;15.83;;;;;;;;;;4974276;28;20866;-35
2022/04/16 02:10:01;;;;;;;20.60;15.60;;;;;;;;;;4977180;28;20178;-35
2022/04/16 02:12:28;;;;;;;19.80;15.60;;;;;;;;;;4974220;28;20291;-35
2022/04/16 02:14:54;;;;;;;26.27;17.97;;;;;;;;;;4994275;28;20208;-35
2022/04/16 02:17:20;;;;;;;27.97;18.30;;;;;;;;;;4980706;28;20177;-35
2022/04/16 02:19:48;;;;;;;24.33;18.37;;;;;;;;;;4978328;28;20182;-35
2022/04/16 02:22:14;;;;;;;22.27;18.10;;;;;;;;;;4975189;28;22764;-35
2022/04/16 02:24:40;;;;;;;23.30;17.80;;;;;;;;;;4976633;28;20780;-35
2022/04/16 02:27:07;;;;;;;27.93;19.40;;;;;;;;;;4976794;28;20239;-35
2022/04/16 02:29:34;;;;;;;25.37;19.77;;;;;;;;;;4977932;28;20205;-35
2022/04/16 02:32:02;;;;;;;23.20;17.90;;;;;;;;;;4971094;28;20181;-35
2022/04/16 02:34:28;;;;;;;25.47;19.10;;;;;;;;;;4979263;28;20668;-35
2022/04/16 02:36:58;;;;;;;25.37;18.80;;;;;;;;;;4979907;28;20193;-35
2022/04/16 02:39:24;;;;;;;22.90;17.33;;;;;;;;;;4975816;28;20411;-35
2022/04/16 02:41:50;;;;;;;24.37;18.07;;;;;;;;;;4975050;28;20816;-36
2022/04/16 02:47:08;;;;;;;25.03;18.07;;;;;;;;;;4977038;28;20642;-35
2022/04/16 02:49:34;;;;;;;23.60;18.03;;;;;;;;;;4975765;28;20740;-35
2022/04/16 02:52:00;;;;;;;24.63;18.13;;;;;;;;;;4974556;28;20189;-35
2022/04/16 02:54:27;;;;;;;21.87;16.33;;;;;;;;;;4973660;28;20188;-35
2022/04/16 02:56:55;;;;;;;25.00;17.77;;;;;;;;;;4982576;28;20208;-35
2022/04/16 02:59:21;;;;;;;21.93;17.00;;;;;;;;;;4976917;28;20228;-35
2022/04/16 03:01:47;;;;;;;23.00;17.47;;;;;;;;;;4971188;28;20224;-35
2022/04/16 03:04:13;;;;;;;20.57;16.70;;;;;;;;;;4975042;28;20177;-35
2022/04/16 03:06:39;;;;;;;22.00;17.80;;;;;;;;;;4975727;28;20213;-35
2022/04/16 03:09:05;;;;;;;21.77;17.30;;;;;;;;;;4977057;28;20188;-35
2022/04/16 03:11:32;;;;;;;20.93;16.23;;;;;;;;;;4974626;28;20186;-35
2022/04/16 03:17:31;;;;;;;20.27;16.33;;;;;;;;;;4975155;28;20188;-35
2022/04/16 03:19:29;;;;;;;22.47;17.67;;;;;;;;;;4976285;28;20381;-35
2022/04/16 03:21:55;;;;;;;23.43;16.57;;;;;;;;;;4973805;28;20173;-35
2022/04/16 03:24:21;;;;;;;20.83;16.53;;;;;;;;;;4978138;28;20176;-35
2022/04/16 03:26:47;;;;;;;22.23;16.37;;;;;;;;;;4978341;28;20372;-35
2022/04/16 03:29:13;;;;;;;20.50;15.67;;;;;;;;;;4975360;28;20203;-35
2022/04/16 03:31:39;;;;;;;21.53;16.20;;;;;;;;;;4975386;28;20635;-35
2022/04/16 03:34:05;;;;;;;20.47;14.83;;;;;;;;;;4975898;28;20184;-35
2022/04/16 03:36:32;;;;;;;20.07;16.03;;;;;;;;;;4981477;28;20192;-35
2022/04/16 03:38:58;;;;;;;19.93;15.77;;;;;;;;;;5006779;28;20412;-35
2022/04/16 03:41:24;;;;;;;22.63;16.63;;;;;;;;;;4975711;28;20216;-35
2022/04/16 03:43:50;;;;;;;23.07;16.90;;;;;;;;;;4973528;28;20259;-35
2022/04/16 03:46:16;;;;;;;20.50;15.90;;;;;;;;;;4978194;28;20836;-35
2022/04/16 03:48:43;;;;;;;20.93;16.23;;;;;;;;;;4978163;28;20176;-35
2022/04/16 03:51:09;;;;;;;25.13;16.50;;;;;;;;;;4975028;28;20262;-35
2022/04/16 03:53:35;;;;;;;25.23;17.50;;;;;;;;;;4975076;28;20613;-35
2022/04/16 04:01:31;;;;;;;25.20;18.10;;;;;;;;;;4974241;28;20251;-35
2022/04/16 04:03:57;;;;;;;25.93;18.40;;;;;;;;;;4971887;28;20185;-34
2022/04/16 04:06:23;;;;;;;25.70;18.63;;;;;;;;;;4978189;28;20339;-34
2022/04/16 04:08:49;;;;;;;22.80;16.07;;;;;;;;;;4976264;28;20182;-35
2022/04/16 04:11:15;;;;;;;23.83;16.80;;;;;;;;;;4974170;28;21080;-35
2022/04/16 04:13:41;;;;;;;22.43;15.67;;;;;;;;;;4976513;28;20307;-35
2022/04/16 04:16:07;;;;;;;22.17;15.70;;;;;;;;;;4983241;28;20594;-35
2022/04/16 04:18:34;;;;;;;20.37;15.20;;;;;;;;;;4977344;28;20802;-35
2022/04/16 04:21:00;;;;;;;19.23;14.30;;;;;;;;;;4967623;28;20869;-35
2022/04/16 04:23:26;;;;;;;20.87;14.77;;;;;;;;;;4981116;28;20176;-35
2022/04/16 04:25:52;;;;;;;18.13;13.37;;;;;;;;;;4977392;28;20178;-35
2022/04/16 04:28:18;;;;;;;17.23;13.10;;;;;;;;;;4973948;28;20523;-35
2022/04/16 04:30:45;;;;;;;23.20;14.70;;;;;;;;;;4972283;28;20184;-35
2022/04/16 04:33:11;;;;;;;22.07;12.57;;;;;;;;;;4974925;28;20752;-35
2022/04/16 04:35:37;;;;;;;21.03;12.27;;;;;;;;;;4981464;28;20181;-35
2022/04/16 04:38:03;;;;;;;20.17;13.37;;;;;;;;;;4975774;28;20454;-35
2022/04/16 04:40:29;;;;;;;22.47;11.80;;;;;;;;;;4980114;28;20181;-39
2022/04/16 04:42:55;;;;;;;16.80;12.20;;;;;;;;;;4989266;28;20173;-36
2022/04/16 04:45:21;;;;;;;15.47;12.23;;;;;;;;;;4980114;28;20709;-35
2022/04/16 04:47:47;;;;;;;18.07;12.70;;;;;;;;;;4978107;28;20201;-35
2022/04/16 04:50:13;;;;;;;16.10;12.67;;;;;;;;;;4978181;28;21101;-35
2022/04/16 04:52:40;;;;;;;18.23;12.50;;;;;;;;;;4978627;28;20200;-35
2022/04/16 04:55:08;;;;;;;14.83;11.47;;;;;;;;;;4972225;28;20180;-35
2022/04/16 04:57:34;;;;;;;23.77;13.23;;;;;;;;;;4979661;28;20211;-35
2022/04/16 05:00:00;;;;;;;17.97;12.73;;;;;;;;;;4977210;28;20196;-35
2022/04/16 05:02:26;;;;;;;18.70;12.83;;;;;;;;;;4976938;28;20262;-35
2022/04/16 05:04:52;;;;;;;18.30;13.53;;;;;;;;;;4981358;28;20184;-35
2022/04/16 05:07:18;;;;;;;18.97;12.93;;;;;;;;;;4979222;28;20209;-35
2022/04/16 05:09:44;;;;;;;20.27;13.90;;;;;;;;;;4975999;28;20447;-35
2022/04/16 05:12:10;;;;;;;21.47;13.87;;;;;;;;;;4979093;28;20581;-35
2022/04/16 05:14:36;;;;;;;19.63;14.20;;;;;;;;;;4977418;28;20280;-35
2022/04/16 05:17:02;;;;;;;21.50;13.03;;;;;;;;;;4978772;28;20767;-35
2022/04/16 05:19:29;;;;;;;14.80;10.73;;;;;;;;;;4976883;28;20173;-35
2022/04/16 05:21:56;;;;;;;17.80;11.13;;;;;;;;;;4979323;28;20645;-35
2022/04/16 05:24:22;;;;;;;15.50;9.97;;;;;;;;;;4984352;28;20192;-35
2022/04/16 05:26:48;;;;;;;17.60;10.53;;;;;;;;;;4979767;28;20200;-35
2022/04/16 05:29:14;;;;;;;13.87;10.03;;;;;;;;;;4979753;28;20212;-35
2022/04/16 05:31:41;;;;;;;15.00;10.57;;;;;;;;;;4977824;28;20216;-35
2022/04/16 05:34:19;;;;;;;15.73;9.83;;;;;;;;;;4974368;28;20181;-35
2022/04/16 05:36:46;;;;;;;21.30;9.80;;;;;;;;;;4977444;28;20738;-36
2022/04/16 05:39:13;;;;;;;13.60;7.27;;;;;;;;;;4979045;28;20177;-35
2022/04/16 05:41:39;;;;;;;10.23;7.03;;;;;;;;;;4978473;28;20693;-35
2022/04/16 05:44:05;;;;;;;12.33;8.17;;;;;;;;;;4978148;28;20447;-36
2022/04/16 05:46:32;;;;;;;12.23;7.60;;;;;;;;;;4981994;28;20565;-35
2022/04/16 05:48:58;;;;;;;14.33;7.90;;;;;;;;;;4977930;28;20228;-36
2022/04/16 05:51:25;;;;;;;13.03;7.60;;;;;;;;;;4978202;28;20220;-36
2022/04/16 05:53:51;;;;;;;14.30;8.77;;;;;;;;;;4980841;28;20280;-35
2022/04/16 05:56:18;;;;;;;14.90;8.43;;;;;;;;;;4982183;28;20247;-36
2022/04/16 05:58:44;;;;;;;17.17;8.90;;;;;;;;;;4979015;28;20859;-36
2022/04/16 06:01:11;;;;;;;12.87;8.23;;;;;;;;;;4976782;28;20244;-35
2022/04/16 06:03:39;;;;;;;19.87;9.53;;;;;;;;;;4990521;28;20222;-35
2022/04/16 06:06:06;;;;;;;15.80;8.23;;;;;;;;;;4980450;28;20464;-35
2022/04/16 06:08:32;;;;;;;14.67;8.47;;;;;;;;;;4977285;28;20295;-36
2022/04/16 06:10:58;;;;;;;11.00;7.67;;;;;;;;;;4979105;28;20800;-36
2022/04/16 06:13:25;;;;;;;13.17;8.07;;;;;;;;;;4978655;28;20713;-36
2022/04/16 06:15:51;;;;;;;15.93;8.83;;;;;;;;;;4976634;28;20249;-36
2022/04/16 06:18:17;;;;;;;15.47;9.00;;;;;;;;;;4974643;28;20181;-35
2022/04/16 06:20:44;;;;;;;15.17;10.23;;;;;;;;;;4981026;28;20205;-36
2022/04/16 06:23:10;;;;;;;15.87;9.90;;;;;;;;;;4977374;28;20177;-36
2022/04/16 06:25:36;;;;;;;15.93;9.60;;;;;;;;;;4980728;28;20186;-35
2022/04/16 06:28:03;;;;;;;16.33;9.43;;;;;;;;;;4967926;28;20604;-36
2022/04/16 06:30:29;;;;;;;21.73;9.63;;;;;;;;;;4971122;28;20238;-35
2022/04/16 06:32:55;;;;;;;13.00;9.20;;;;;;;;;;4977191;28;20794;-36
2022/04/16 06:35:21;;;;;;;13.47;8.80;;;;;;;;;;4974528;28;20838;-36
2022/04/16 06:37:47;;;;;;;12.17;7.90;;;;;;;;;;4971341;28;20317;-36
2022/04/16 06:40:14;;;;;;;12.30;8.20;;;;;;;;;;4976897;28;20806;-36
2022/04/16 06:42:40;;;;;;;10.97;7.20;;;;;;;;;;4977104;28;20596;-35
2022/04/16 06:45:07;;;;;;;16.00;7.47;;;;;;;;;;4979846;28;20185;-36
2022/04/16 06:47:33;;;;;;;11.67;7.93;;;;;;;;;;4977605;28;20824;-36
2022/04/16 06:50:00;;;;;;;10.70;7.63;;;;;;;;;;4977290;28;21080;-36
2022/04/16 06:52:26;;;;;;;14.40;7.60;;;;;;;;;;4967249;28;20683;-36
2022/04/16 06:54:52;;;;;;;11.60;8.00;;;;;;;;;;4976596;28;20187;-36
2022/04/16 06:57:18;;;;;;;14.57;8.57;;;;;;;;;;4976278;28;20450;-36
2022/04/16 06:59:44;;;;;;;13.90;8.67;;;;;;;;;;4972389;28;20177;-36
2022/04/16 07:02:11;;;;;;;14.20;8.90;;;;;;;;;;4977408;28;20295;-38
2022/04/16 07:04:38;;;;;;;13.57;8.40;;;;;;;;;;4979786;28;20169;-35
2022/04/16 07:07:04;;;;;;;12.37;7.73;;;;;;;;;;4978872;28;20402;-36
2022/04/16 07:09:30;;;;;;;14.93;8.00;;;;;;;;;;4977884;28;20518;-36
2022/04/16 07:11:57;;;;;;;13.43;8.07;;;;;;;;;;4979535;28;20687;-36
2022/04/16 07:14:23;;;;;;;10.77;7.50;;;;;;;;;;4979680;28;20178;-36
2022/04/16 07:16:49;;;;;;;13.53;9.37;;;;;;;;;;4976183;28;20188;-36
2022/04/16 07:19:15;;;;;;;12.63;8.33;;;;;;;;;;4988225;28;20180;-36
2022/04/16 07:21:42;;;;;;;25.37;12.03;;;;;;;;;;4997519;28;20193;-36
2022/04/16 07:24:08;;;;;;;18.93;12.73;;;;;;;;;;5001144;28;20268;-36
2022/04/16 07:26:34;;;;;;;16.77;12.80;;;;;;;;;;4999833;28;20208;-36
2022/04/16 07:29:00;;;;;;;20.27;12.73;;;;;;;;;;4983881;28;20391;-36
2022/04/16 07:31:26;;;;;;;22.40;14.33;;;;;;;;;;4978594;28;21012;-35
2022/04/16 07:33:52;;;;;;;22.17;14.43;;;;;;;;;;4977567;28;20244;-36
2022/04/16 07:36:18;;;;;;;27.67;16.23;;;;;;;;;;4979665;28;20189;-35
2022/04/16 07:38:44;;;;;;;26.03;17.37;;;;;;;;;;4979260;28;20471;-35
2022/04/16 07:41:11;;;;;;;26.70;16.90;;;;;;;;;;4980368;28;20172;-35
2022/04/16 07:43:38;;;;;;;22.13;17.13;;;;;;;;;;4979980;28;20180;-35
2022/04/16 07:46:04;;;;;;;32.50;22.97;;;;;;;;;;4983686;28;20180;-35
2022/04/16 07:48:30;;;;;;;31.37;22.07;;;;;;;;;;4983860;28;20201;-35
2022/04/16 07:50:56;;;;;;;28.90;21.37;;;;;;;;;;4996581;28;20287;-35
2022/04/16 07:53:22;;;;;;;33.03;22.43;;;;;;;;;;4981007;28;20292;-35
2022/04/16 07:55:48;;;;;;;27.53;21.07;;;;;;;;;;4976739;28;20238;-35
2022/04/16 07:58:14;;;;;;;25.23;20.50;;;;;;;;;;4980983;28;20509;-35
2022/04/16 08:00:40;;;;;;;28.73;20.93;;;;;;;;;;4985065;28;20173;-35
2022/04/16 08:03:06;;;;;;;29.23;21.10;;;;;;;;;;4981131;28;20192;-35
2022/04/16 08:05:33;;;;;;;26.20;21.13;;;;;;;;;;4977062;28;20754;-35
2022/04/16 08:07:59;;;;;;;26.60;19.70;;;;;;;;;;4978653;28;20986;-35
2022/04/16 08:10:25;;;;;;;25.93;20.33;;;;;;;;;;4980386;28;20181;-35
2022/04/16 08:12:51;;;;;;;27.70;19.77;;;;;;;;;;4978621;28;20538;-35
2022/04/16 08:15:17;;;;;;;24.83;17.63;;;;;;;;;;4982743;28;20235;-35
2022/04/16 08:17:43;;;;;;;21.77;14.83;;;;;;;;;;4979507;28;20514;-35
2022/04/16 08:20:10;;;;;;;20.00;16.27;;;;;;;;;;4978089;28;20207;-35
2022/04/16 08:22:38;;;;;;;22.47;16.53;;;;;;;;;;4982110;28;20569;-35
2022/04/16 08:27:49;;;;;;;22.87;17.47;;;;;;;;;;4980111;28;21010;-35
2022/04/16 08:30:16;;;;;;;17.70;15.10;;;;;;;;;;4978717;28;20169;-35
2022/04/16 08:32:43;;;;;;;16.87;11.83;;;;;;;;;;4979171;28;20177;-35
2022/04/16 08:35:10;;;;;;;15.20;11.87;;;;;;;;;;4980022;28;20177;-35
2022/04/16 08:37:36;;;;;;;16.47;12.90;;;;;;;;;;4979232;28;21145;-35
2022/04/16 08:40:03;;;;;;;15.97;11.13;;;;;;;;;;4979716;28;20185;-35
2022/04/16 08:42:30;;;;;;;14.23;11.10;;;;;;;;;;4977368;28;20731;-36
2022/04/16 08:44:57;;;;;;;15.23;10.37;;;;;;;;;;4985848;28;20284;-36
2022/04/16 08:47:24;;;;;;;12.13;8.90;;;;;;;;;;4979516;28;20284;-36
2022/04/16 08:49:50;;;;;;;15.27;10.90;;;;;;;;;;4979051;28;20344;-36
2022/04/16 08:52:17;;;;;;;13.00;10.37;;;;;;;;;;4978776;28;20182;-36
2022/04/16 08:54:43;;;;;;;13.27;10.00;;;;;;;;;;4981041;28;20166;-37
2022/04/16 08:57:10;;;;;;;14.07;9.57;;;;;;;;;;4984120;28;21061;-37
2022/04/16 08:59:36;;;;;;;13.57;9.27;;;;;;;;;;4980829;28;20188;-37
2022/04/16 09:02:02;;;;;;;14.73;9.53;;;;;;;;;;4981145;28;20497;-36
2022/04/16 09:04:32;;;;;;;14.07;10.07;;;;;;;;;;4979702;28;20185;-36
2022/04/16 09:06:59;;;;;;;13.30;9.93;;;;;;;;;;4980980;28;20205;-36
2022/04/16 09:09:25;;;;;;;18.23;11.03;;;;;;;;;;4981756;28;20810;-36
2022/04/16 09:11:52;;;;;;;14.43;9.57;;;;;;;;;;4981503;28;20444;-36
2022/04/16 09:14:18;;;;;;;13.67;9.10;;;;;;;;;;4997168;28;20529;-36
2022/04/16 09:16:44;;;;;;;14.77;9.60;;;;;;;;;;4981889;28;20265;-37
2022/04/16 09:19:16;;;;;;;14.70;9.63;;;;;;;;;;4977933;28;20822;-36
2022/04/16 09:21:43;;;;;;;14.67;9.97;;;;;;;;;;4981761;28;20271;-36
2022/04/16 09:24:09;;;;;;;14.20;9.70;;;;;;;;;;4984044;28;20188;-36
2022/04/16 09:26:36;;;;;;;13.03;9.17;;;;;;;;;;4978100;28;20191;-36
2022/04/16 09:29:07;;;;;;;15.43;9.73;;;;;;;;;;4982010;28;20239;-36
2022/04/16 09:31:34;;;;;;;14.50;9.10;;;;;;;;;;4978320;28;20742;-36
2022/04/16 09:34:00;;;;;;;19.50;11.13;;;;;;;;;;4976283;28;20498;-37
2022/04/16 09:36:29;;;;;;;17.53;11.17;;;;;;;;;;4978965;28;20189;-36
2022/04/16 09:39:05;;;;;;;18.00;11.43;;;;;;;;;;4978437;28;20941;-36
2022/04/16 09:41:35;;;;;;;15.77;11.43;;;;;;;;;;4984086;28;20172;-36
2022/04/16 09:44:01;;;;;;;16.63;11.10;;;;;;;;;;4981712;28;20450;-37
2022/04/16 09:46:28;;;;;;;18.93;11.80;;;;;;;;;;4982676;28;20181;-37
2022/04/16 09:48:58;;;;;;;18.07;11.57;;;;;;;;;;4983238;28;20184;-36
2022/04/16 09:51:25;;;;;;;21.20;12.07;;;;;;;;;;4984419;28;20173;-36
2022/04/16 09:53:53;;;;;;;21.57;11.87;;;;;;;;;;4979625;28;20177;-36
2022/04/16 09:56:20;;;;;;;22.07;13.20;;;;;;;;;;4977311;28;20192;-36
2022/04/16 09:58:54;;;;;;;23.63;13.03;;;;;;;;;;4974296;28;21005;-36
2022/04/16 10:01:24;;;;;;;22.80;12.63;;;;;;;;;;4980196;28;21004;-36
2022/04/16 10:03:52;;;;;;;19.80;12.93;;;;;;;;;;4973701;28;20192;-36
2022/04/16 10:06:20;;;;;;;21.37;12.67;;;;;;;;;;4975170;28;20304;-36
2022/04/16 10:08:47;;;;;;;19.60;11.80;;;;;;;;;;4979449;28;20232;-36
2022/04/16 10:11:20;;;;;;;24.83;13.93;;;;;;;;;;4981213;28;20503;-36
2022/04/16 10:13:53;;;;;;;24.10;12.77;;;;;;;;;;4977680;28;20887;-36
2022/04/16 10:16:35;;;;;;;20.23;12.53;;;;;;;;;;4979724;28;20444;-36
2022/04/16 10:19:02;;;;;;;21.03;12.53;;;;;;;;;;4995781;28;20172;-36
2022/04/16 10:21:33;;;;;;;24.57;12.03;;;;;;;;;;4977297;28;20192;-35
2022/04/16 10:24:02;;;;;;;23.20;11.97;;;;;;;;;;4977891;28;20503;-36
2022/04/16 10:26:37;;;;;;;18.57;12.10;;;;;;;;;;4979691;28;20194;-36
2022/04/16 10:29:04;;;;;;;19.73;11.90;;;;;;;;;;4979538;28;20188;-36
2022/04/16 10:31:32;;;;;;;18.93;11.97;;;;;;;;;;4976954;28;20620;-35
2022/04/16 10:34:06;;;;;;;17.23;11.70;;;;;;;;;;4980150;28;20348;-36
2022/04/16 10:36:37;;;;;;;15.83;11.80;;;;;;;;;;4980692;28;20196;-35
2022/04/16 10:39:15;;;;;;;19.03;12.10;;;;;;;;;;4975573;28;20682;-36
2022/04/16 10:41:52;;;;;;;16.93;12.53;;;;;;;;;;4979159;28;20687;-35
2022/04/16 10:44:18;;;;;;;21.00;12.70;;;;;;;;;;4978357;28;20205;-36
2022/04/16 10:46:46;;;;;;;20.03;11.60;;;;;;;;;;4976195;28;20714;-35
2022/04/16 10:49:13;;;;;;;16.93;11.47;;;;;;;;;;4974720;28;20181;-35
2022/04/16 10:51:39;;;;;;;14.77;11.23;;;;;;;;;;4981852;28;20174;-36
2022/04/16 10:54:10;;;;;;;20.27;12.30;;;;;;;;;;4977618;28;20184;-36
2022/04/16 10:56:45;;;;;;;15.47;11.70;;;;;;;;;;4975589;28;20518;-36
2022/04/16 10:59:11;;;;;;;14.83;11.93;;;;;;;;;;4974013;28;20427;-35
2022/04/16 11:01:38;;;;;;;16.23;12.30;;;;;;;;;;4978115;28;20205;-36
2022/04/16 11:04:14;;;;;;;18.10;12.20;;;;;;;;;;4974251;28;20186;-35
2022/04/16 11:06:45;;;;;;;16.57;13.50;;;;;;;;;;4969106;28;20424;-35
2022/04/16 11:09:18;;;;;;;16.00;12.23;;;;;;;;;;4975416;28;20173;-36
2022/04/16 11:11:44;;;;;;;17.13;12.23;;;;;;;;;;4976168;28;20205;-36
2022/04/16 11:14:10;;;;;;;16.13;12.17;;;;;;;;;;4972193;28;20176;-36
2022/04/16 11:16:44;;;;;;;18.33;12.43;;;;;;;;;;4976572;28;20557;-35
2022/04/16 11:19:16;;;;;;;17.23;14.17;;;;;;;;;;4975951;28;20724;-35
2022/04/16 11:21:43;;;;;;;17.17;13.90;;;;;;;;;;4977127;28;20173;-35
2022/04/16 11:24:09;;;;;;;18.83;12.87;;;;;;;;;;4974118;28;20231;-34
2022/04/16 11:34:55;;;;;;;18.57;12.20;;;;;;;;;;4974495;28;20962;-35
2022/04/16 11:37:22;;;;;;;16.17;10.23;;;;;;;;;;4976136;28;20819;-36
2022/04/16 11:39:58;;;;;;;13.70;10.00;;;;;;;;;;4978876;28;20187;-35
2022/04/16 11:42:26;;;;;;;13.33;9.20;;;;;;;;;;4971014;28;20174;-36
2022/04/16 11:44:52;;;;;;;16.00;10.70;;;;;;;;;;4975848;28;20451;-36
2022/04/16 11:47:23;;;;;;;16.33;10.50;;;;;;;;;;4974553;28;20345;-36
2022/04/16 11:49:51;;;;;;;13.40;10.43;;;;;;;;;;4973635;28;20247;-36
2022/04/16 11:52:22;;;;;;;16.10;10.33;;;;;;;;;;4972078;28;21112;-36
2022/04/16 11:54:48;;;;;;;14.27;9.53;;;;;;;;;;4975231;28;20633;-36
2022/04/16 11:57:22;;;;;;;9.03;7.63;;;;;;;;;;4974865;28;20181;-35
2022/04/16 11:59:56;;;;;;;12.13;8.47;;;;;;;;;;4975951;28;20920;-36
2022/04/16 12:02:22;;;;;;;14.23;7.57;;;;;;;;;;4974459;28;20185;-36
2022/04/16 12:04:48;;;;;;;13.30;7.07;;;;;;;;;;4974950;28;20278;-35
2022/04/16 12:07:18;;;;;;;12.10;6.50;;;;;;;;;;4971740;28;21014;-36
2022/04/16 12:09:47;;;;;;;10.23;6.43;;;;;;;;;;4977547;28;20529;-35
2022/04/16 12:12:22;;;;;;;10.73;5.20;;;;;;;;;;4970316;28;20184;-36
2022/04/16 12:14:58;;;;;;;7.67;5.50;;;;;;;;;;4975826;28;20730;-36
2022/04/16 12:17:29;;;;;;;10.00;5.50;;;;;;;;;;4973218;28;20180;-36
2022/04/16 12:20:06;;;;;;;12.13;6.10;;;;;;;;;;5001311;28;20192;-35
2022/04/16 12:22:33;;;;;;;11.60;4.90;;;;;;;;;;4975081;28;20513;-36
2022/04/16 12:25:11;;;;;;;8.40;4.70;;;;;;;;;;4975740;28;20582;-35
2022/04/16 12:27:48;;;;;;;8.77;4.80;;;;;;;;;;4972721;28;21024;-36
2022/04/16 12:30:18;;;;;;;10.27;4.23;;;;;;;;;;4971713;28;20176;-36
2022/04/16 12:33:04;;;;;;;15.77;4.03;;;;;;;;;;4970714;28;20503;-36
2022/04/16 12:35:35;;;;;;;11.93;3.60;;;;;;;;;;4975679;28;20181;-36
2022/04/16 12:38:01;;;;;;;8.40;3.10;;;;;;;;;;4975132;28;21103;-36
2022/04/16 12:40:28;;;;;;;7.50;2.83;;;;;;;;;;4975474;28;20211;-35
2022/04/16 12:42:56;;;;;;;5.73;2.90;;;;;;;;;;4977753;28;20219;-36
2022/04/16 12:45:23;;;;;;;5.47;2.50;;;;;;;;;;4973713;28;20212;-36
2022/04/16 12:47:49;;;;;;;9.33;2.17;;;;;;;;;;4974500;28;20267;-35
2022/04/16 12:50:15;;;;;;;6.17;2.23;;;;;;;;;;4981009;28;20841;-36
2022/04/16 12:52:42;;;;;;;14.33;3.10;;;;;;;;;;4980792;28;20755;-36
2022/04/16 12:55:09;;;;;;;9.30;1.93;;;;;;;;;;4977542;28;20493;-36
2022/04/16 12:57:35;;;;;;;9.23;2.03;;;;;;;;;;4976319;28;21444;-35
2022/04/16 13:00:01;;;;;;;12.23;2.30;;;;;;;;;;4981179;28;20185;-35
2022/04/16 13:02:28;;;;;;;6.70;2.17;;;;;;;;;;4980580;28;20184;-35
2022/04/16 13:04:54;;;;;;;22.90;3.53;;;;;;;;;;4978844;28;20685;-35
2022/04/16 13:07:21;;;;;;;6.30;1.80;;;;;;;;;;4978801;28;20298;-35
2022/04/16 13:09:47;;;;;;;13.37;2.10;;;;;;;;;;4978243;28;20270;-36
2022/04/16 13:12:13;;;;;;;5.60;2.00;;;;;;;;;;4979433;28;20181;-36
2022/04/16 13:14:43;;;;;;;4.77;1.90;;;;;;;;;;4979005;28;20377;-36
2022/04/16 13:17:10;;;;;;;5.90;2.00;;;;;;;;;;4977800;28;21321;-35
2022/04/16 13:19:36;;;;;;;2.23;1.70;;;;;;;;;;4978020;28;20219;-35
2022/04/16 13:22:02;;;;;;;9.27;1.80;;;;;;;;;;4977291;28;20200;-36
2022/04/16 13:24:29;;;;;;;6.83;2.10;;;;;;;;;;4982404;28;20331;-36
2022/04/16 13:26:55;;;;;;;5.80;2.23;;;;;;;;;;4983826;28;20184;-35
2022/04/16 13:29:21;;;;;;;5.03;2.40;;;;;;;;;;4977454;28;20998;-36
2022/04/16 13:31:47;;;;;;;11.33;2.43;;;;;;;;;;4908892;28;20227;-36
2022/04/16 13:34:13;;;;;;;4.73;1.80;;;;;;;;;;4970319;28;20224;-35
2022/04/16 13:36:40;;;;;;;6.17;2.30;;;;;;;;;;4965927;28;20215;-35
2022/04/16 13:41:38;;;;;;;5.80;2.13;;;;;;;;;;4976026;28;21137;-35
2022/04/16 13:41:53;;;;;;;4.77;1.87;;;;;;;;;;4979214;28;20177;-35
2022/04/16 13:44:19;;;;;;;5.87;2.20;;;;;;;;;;4977878;28;21148;-34
2022/04/16 13:46:45;;;;;;;7.30;2.27;;;;;;;;;;4974645;28;20173;-34
2022/04/16 13:49:11;;;;;;;6.53;2.53;;;;;;;;;;4980888;28;20166;-34
2022/04/16 13:51:37;;;;;;;22.13;3.77;;;;;;;;;;4980956;28;20176;-36
2022/04/16 13:54:03;;;;;;;7.97;2.67;;;;;;;;;;4977876;28;20173;-36
2022/04/16 13:56:30;;;;;;;11.53;2.73;;;;;;;;;;4977376;28;20251;-35
2022/04/16 13:58:56;;;;;;;6.50;2.57;;;;;;;;;;4978439;28;20169;-35
2022/04/16 14:01:23;;;;;;;7.20;2.37;;;;;;;;;;4983124;28;20180;-35
2022/04/16 14:03:49;;;;;;;8.93;2.40;;;;;;;;;;4982015;28;21011;-35
2022/04/16 14:06:19;;;;;;;5.80;2.10;;;;;;;;;;4977516;28;20724;-36
2022/04/16 14:08:45;;;;;;;7.70;2.10;;;;;;;;;;4981624;28;20197;-36
2022/04/16 14:11:12;;;;;;;7.90;2.27;;;;;;;;;;4982554;28;20177;-36
2022/04/16 14:13:39;;;;;;;4.77;1.80;;;;;;;;;;4981167;28;20916;-35
2022/04/16 14:16:06;;;;;;;6.17;1.80;;;;;;;;;;4981753;28;20538;-35
2022/04/16 14:18:32;;;;;;;5.10;1.70;;;;;;;;;;4981856;28;21197;-35
2022/04/16 14:20:58;;;;;;;6.73;1.93;;;;;;;;;;4979761;28;20362;-35
2022/04/16 14:23:28;;;;;;;4.77;1.63;;;;;;;;;;4980369;28;20757;-36
2022/04/16 14:25:55;;;;;;;4.70;1.60;;;;;;;;;;4979663;28;20173;-35
2022/04/16 14:28:21;;;;;;;4.33;1.60;;;;;;;;;;4976169;28;20200;-35
2022/04/16 14:30:47;;;;;;;3.63;1.90;;;;;;;;;;4980462;28;20996;-36
2022/04/16 14:33:13;;;;;;;5.47;1.60;;;;;;;;;;4981589;28;20464;-35
2022/04/16 14:35:39;;;;;;;4.47;1.77;;;;;;;;;;4978890;28;20174;-35
2022/04/16 14:38:12;;;;;;;6.23;1.53;;;;;;;;;;4979459;28;20223;-36
2022/04/16 14:40:42;;;;;;;7.63;1.60;;;;;;;;;;4980250;28;20247;-36
2022/04/16 14:43:12;;;;;;;2.80;1.50;;;;;;;;;;4979089;28;20188;-35
2022/04/16 14:45:48;;;;;;;5.03;1.80;;;;;;;;;;4980732;28;20190;-36